Time;durP1;ratioP1;P1;durP2;ratioP2;P2;SDS_P1;SDS_P2;PMS_P1;PMS_P2;Temp;Humidity;BMP_temperature;BMP_pressure;BME280_temperature;BME280_humidity;BME280_pressure;Samples;Min_cycle;Max_cycle;Signal;HPM_P1;HPM_P2
2024/02/07 00:01:05;;;;;;;8.23;4.00;;;;;;;10.70;96.21;99218.44;4993639;28;20204;-81
2024/02/07 00:03:31;;;;;;;7.50;3.70;;;;;;;10.68;96.87;99205.25;4996198;28;20212;-79
2024/02/07 00:05:57;;;;;;;6.30;2.83;;;;;;;10.67;97.38;99216.03;4996207;28;20212;-81
2024/02/07 00:08:24;;;;;;;6.77;3.30;;;;;;;10.63;97.76;99218.09;4992413;28;20663;-80
2024/02/07 00:10:51;;;;;;;8.93;4.10;;;;;;;10.60;98.46;99207.72;4996531;28;20694;-80
2024/02/07 00:13:18;;;;;;;6.93;2.97;;;;;;;10.58;99.05;99207.00;4995064;28;20232;-82
2024/02/07 00:15:46;;;;;;;9.83;2.90;;;;;;;10.59;99.44;99200.69;4996555;28;20235;-79
2024/02/07 00:18:13;;;;;;;7.20;4.50;;;;;;;10.53;99.70;99203.91;4992399;28;20239;-79
2024/02/07 00:20:39;;;;;;;5.30;2.60;;;;;;;10.51;99.98;99211.19;4991396;28;20209;-81
2024/02/07 00:23:07;;;;;;;11.10;3.57;;;;;;;10.51;100.00;99189.03;4993259;28;20210;-79
2024/02/07 00:25:33;;;;;;;7.77;3.40;;;;;;;10.48;100.00;99205.28;4995872;28;20216;-81
2024/02/07 00:28:00;;;;;;;3.63;2.70;;;;;;;10.47;100.00;99187.59;4998435;28;20239;-79
2024/02/07 00:30:26;;;;;;;4.40;2.67;;;;;;;10.46;100.00;99196.56;4990843;28;20204;-81
2024/02/07 00:32:54;;;;;;;6.03;3.07;;;;;;;10.45;100.00;99195.72;4998455;28;20208;-79
2024/02/07 00:35:21;;;;;;;6.93;2.53;;;;;;;10.43;100.00;99174.56;4991008;28;20223;-80
2024/02/07 00:37:47;;;;;;;6.27;3.20;;;;;;;10.39;100.00;99194.44;4994655;28;20264;-82
2024/02/07 00:40:15;;;;;;;6.93;2.97;;;;;;;10.38;100.00;99170.63;4986857;28;20794;-80
2024/02/07 00:42:41;;;;;;;7.23;3.07;;;;;;;10.38;100.00;99183.94;4996275;28;20687;-81
2024/02/07 00:45:08;;;;;;;6.17;3.27;;;;;;;10.38;100.00;99171.47;4990578;28;20819;-79
2024/02/07 00:47:35;;;;;;;8.03;3.47;;;;;;;10.39;100.00;99174.97;4995912;28;20236;-82
2024/02/07 00:50:03;;;;;;;6.87;3.43;;;;;;;10.34;100.00;99230.41;4995564;28;20227;-81
2024/02/07 00:52:29;;;;;;;1.87;1.20;;;;;;;10.28;100.00;99209.63;4994333;28;20217;-83
2024/02/07 00:54:56;;;;;;;2.20;0.50;;;;;;;10.04;97.43;99220.47;4995503;28;20228;-82
2024/02/07 00:57:22;;;;;;;1.33;0.70;;;;;;;9.85;98.77;99249.59;4992770;28;20232;-81
2024/02/07 00:59:49;;;;;;;0.90;0.70;;;;;;;9.71;100.00;99217.00;4992230;28;20207;-82
2024/02/07 01:02:15;;;;;;;2.27;0.80;;;;;;;9.54;100.00;99275.16;4996310;28;20211;-81
2024/02/07 01:04:42;;;;;;;1.27;0.50;;;;;;;9.35;100.00;99234.13;4996894;28;20208;-83
2024/02/07 01:07:09;;;;;;;1.30;0.40;;;;;;;9.24;100.00;99254.56;4990465;28;20207;-84
2024/02/07 01:09:36;;;;;;;1.57;0.50;;;;;;;9.15;100.00;99257.94;4993015;28;20215;-82
2024/02/07 01:12:02;;;;;;;0.83;0.50;;;;;;;9.02;100.00;99253.63;4995707;28;20616;-84
2024/02/07 01:14:29;;;;;;;0.80;0.30;;;;;;;8.89;100.00;99263.53;4995221;28;20672;-81
2024/02/07 01:16:55;;;;;;;0.30;0.30;;;;;;;8.74;100.00;99269.19;5000144;28;20208;-82
2024/02/07 01:19:22;;;;;;;0.33;0.27;;;;;;;8.52;100.00;99273.50;4998387;28;20218;-81
2024/02/07 01:21:49;;;;;;;1.00;0.40;;;;;;;8.27;99.33;99285.06;4999672;28;21059;-81
2024/02/07 01:24:17;;;;;;;0.70;0.40;;;;;;;8.07;99.96;99280.41;4997139;28;20203;-81
2024/02/07 01:26:44;;;;;;;0.73;0.40;;;;;;;7.91;100.00;99282.53;4999193;28;20675;-81
2024/02/07 01:29:10;;;;;;;1.17;0.40;;;;;;;7.72;98.54;99283.03;4999132;28;20868;-80
2024/02/07 01:31:37;;;;;;;1.50;0.43;;;;;;;7.55;97.64;99294.00;4997361;28;20212;-82
2024/02/07 01:34:03;;;;;;;0.50;0.20;;;;;;;7.34;96.90;99283.19;4996893;28;20231;-80
2024/02/07 01:36:30;;;;;;;2.30;0.60;;;;;;;7.16;97.40;99282.69;4995744;28;20210;-81
2024/02/07 01:38:56;;;;;;;0.60;0.30;;;;;;;7.06;98.49;99286.09;4997062;28;20257;-81
2024/02/07 01:41:24;;;;;;;1.37;0.47;;;;;;;6.92;98.74;99300.28;4997238;28;20688;-80
2024/02/07 01:43:51;;;;;;;2.73;0.40;;;;;;;6.74;98.92;99299.78;4999143;28;20567;-80
2024/02/07 01:46:18;;;;;;;3.17;0.50;;;;;;;6.63;98.55;99307.59;4991819;28;20211;-81
2024/02/07 01:48:45;;;;;;;1.67;0.40;;;;;;;6.48;97.72;99312.13;4995346;28;20232;-83
2024/02/07 01:51:13;;;;;;;2.80;0.80;;;;;;;6.35;98.79;99302.50;4993879;28;20262;-80
2024/02/07 01:53:40;;;;;;;1.63;0.30;;;;;;;6.22;98.62;99308.59;4996587;28;20744;-80
2024/02/07 01:56:08;;;;;;;1.97;0.50;;;;;;;6.09;98.16;99315.63;4996333;28;20577;-81
2024/02/07 01:58:36;;;;;;;2.43;0.63;;;;;;;6.01;99.83;99314.47;4998063;28;20243;-80
2024/02/07 02:01:04;;;;;;;2.73;0.60;;;;;;;5.98;100.00;99322.59;4996780;28;20216;-80
2024/02/07 02:03:30;;;;;;;2.90;0.67;;;;;;;5.92;100.00;99327.31;4997923;28;20585;-80
2024/02/07 02:05:57;;;;;;;1.77;0.93;;;;;;;5.90;100.00;99331.03;4999941;28;20200;-80
2024/02/07 02:08:24;;;;;;;1.50;0.53;;;;;;;5.90;100.00;99334.53;4994452;28;20223;-80
2024/02/07 02:10:56;;;;;;;1.40;0.40;;;;;;;5.91;100.00;99338.00;4999213;28;20207;-80
2024/02/07 02:13:23;;;;;;;2.77;0.50;;;;;;;5.91;100.00;99343.31;4994256;28;20208;-80
2024/02/07 02:15:50;;;;;;;0.77;0.47;;;;;;;5.91;100.00;99335.38;4995766;28;20587;-79
2024/02/07 02:18:17;;;;;;;0.53;0.30;;;;;;;5.86;100.00;99340.06;4997937;28;20602;-81
2024/02/07 02:20:44;;;;;;;4.23;0.50;;;;;;;5.81;100.00;99339.50;4999205;28;21937;-79
2024/02/07 02:23:27;;;;;;;3.73;0.50;;;;;;;5.72;100.00;99334.84;4996003;28;20550;-79
2024/02/07 02:26:14;;;;;;;1.13;0.37;;;;;;;5.68;100.00;99341.25;4997873;28;20196;-80
2024/02/07 02:28:52;;;;;;;1.70;0.60;;;;;;;5.64;100.00;99353.81;5000116;28;20258;-80
2024/02/07 02:31:23;;;;;;;3.53;0.87;;;;;;;5.65;100.00;99352.00;4999217;28;20216;-80
2024/02/07 02:33:55;;;;;;;1.77;0.63;;;;;;;5.59;100.00;99345.31;4998746;28;20538;-80
2024/02/07 02:36:22;;;;;;;2.10;0.50;;;;;;;5.59;100.00;99346.16;5000885;28;20203;-80
2024/02/07 02:38:48;;;;;;;1.10;0.40;;;;;;;5.56;100.00;99341.06;4997193;28;20220;-79
2024/02/07 02:41:15;;;;;;;2.93;0.70;;;;;;;5.54;100.00;99356.19;5000230;28;20266;-80
2024/02/07 02:43:41;;;;;;;3.13;0.57;;;;;;;5.53;100.00;99348.38;4990305;28;20204;-79
2024/02/07 02:46:09;;;;;;;1.03;0.60;;;;;;;5.52;100.00;99351.94;5000608;28;20218;-80
2024/02/07 02:48:37;;;;;;;2.17;0.57;;;;;;;5.51;100.00;99339.69;4999053;28;20607;-80
2024/02/07 02:51:04;;;;;;;1.63;0.93;;;;;;;5.49;100.00;99334.50;4996156;28;20218;-80
2024/02/07 02:53:32;;;;;;;2.17;0.50;;;;;;;5.52;100.00;99333.47;4994957;28;20210;-79
2024/02/07 02:55:59;;;;;;;0.47;0.47;;;;;;;5.51;100.00;99350.25;4995765;28;20219;-80
2024/02/07 02:58:29;;;;;;;3.10;0.77;;;;;;;5.51;100.00;99345.81;4993022;28;20231;-79
2024/02/07 03:00:56;;;;;;;1.60;0.40;;;;;;;5.51;100.00;99342.31;4996301;28;20207;-80
2024/02/07 03:03:23;;;;;;;0.90;0.40;;;;;;;5.50;100.00;99338.84;4996758;28;20314;-81
2024/02/07 03:05:58;;;;;;;1.13;0.50;;;;;;;5.47;100.00;99341.66;5001963;28;20644;-79
2024/02/07 03:08:29;;;;;;;2.63;0.60;;;;;;;5.43;100.00;99337.50;4997998;28;20238;-80
2024/02/07 03:10:56;;;;;;;2.00;0.47;;;;;;;5.44;100.00;99344.50;4995926;28;20731;-81
2024/02/07 03:13:24;;;;;;;1.37;0.47;;;;;;;5.44;100.00;99336.56;4997719;28;20203;-80
2024/02/07 03:15:52;;;;;;;1.67;0.50;;;;;;;5.43;100.00;99356.00;5000536;28;20227;-82
2024/02/07 03:18:20;;;;;;;6.53;0.67;;;;;;;5.42;100.00;99359.59;4996696;28;20239;-79
2024/02/07 03:20:47;;;;;;;1.47;0.40;;;;;;;5.45;100.00;99364.69;5002277;28;20274;-80
2024/02/07 03:23:15;;;;;;;1.43;0.50;;;;;;;5.39;100.00;99382.69;4991702;28;20222;-79
2024/02/07 03:25:42;;;;;;;3.27;0.40;;;;;;;5.34;100.00;99393.56;4995252;28;20284;-80
2024/02/07 03:28:10;;;;;;;1.63;0.50;;;;;;;5.22;100.00;99392.50;4998949;28;20238;-79
2024/02/07 03:30:37;;;;;;;1.33;0.53;;;;;;;5.17;100.00;99385.81;4999583;28;20235;-80
2024/02/07 03:33:04;;;;;;;2.17;0.50;;;;;;;5.09;100.00;99390.72;4995008;28;20241;-81
2024/02/07 03:35:32;;;;;;;4.67;0.83;;;;;;;4.97;100.00;99381.75;4994483;28;20319;-80
2024/02/07 03:37:59;;;;;;;1.37;0.40;;;;;;;4.89;100.00;99400.66;4992229;28;20223;-82
2024/02/07 03:40:27;;;;;;;2.00;0.40;;;;;;;4.83;100.00;99397.56;4995354;28;20210;-81
2024/02/07 03:42:53;;;;;;;2.63;0.57;;;;;;;4.77;100.00;99398.78;5000362;28;20663;-81
2024/02/07 03:45:20;;;;;;;0.90;0.40;;;;;;;4.71;100.00;99399.13;4993831;28;20207;-80
2024/02/07 03:47:47;;;;;;;1.17;0.40;;;;;;;4.66;100.00;99406.44;4996476;28;20231;-81
2024/02/07 03:50:16;;;;;;;1.67;0.30;;;;;;;4.66;100.00;99405.63;5000254;28;20211;-82
2024/02/07 03:52:44;;;;;;;1.03;0.43;;;;;;;4.57;100.00;99412.28;4996912;28;20204;-83
2024/02/07 03:55:11;;;;;;;1.03;0.33;;;;;;;4.48;100.00;99416.28;4992583;28;20231;-81
2024/02/07 03:57:42;;;;;;;3.23;0.73;;;;;;;4.42;100.00;99416.66;4994095;28;20231;-80
2024/02/07 04:00:10;;;;;;;3.03;0.47;;;;;;;4.38;100.00;99425.69;4994904;28;20235;-80
2024/02/07 04:02:38;;;;;;;2.80;0.33;;;;;;;4.33;100.00;99421.59;5002970;28;20211;-82
2024/02/07 04:05:05;;;;;;;2.53;0.50;;;;;;;4.31;100.00;99413.78;5000970;28;20301;-80
2024/02/07 04:07:33;;;;;;;1.53;0.30;;;;;;;4.28;100.00;99415.75;5002188;28;20230;-81
2024/02/07 04:09:59;;;;;;;2.27;0.50;;;;;;;4.26;100.00;99415.00;4997314;28;20660;-81
2024/02/07 05:17:13;;;;;;;4.47;0.40;;;;;;;3.70;100.00;99447.97;5003308;28;20762;-80
2024/02/07 05:19:41;;;;;;;1.90;0.67;;;;;;;3.65;100.00;99444.75;5000983;28;20203;-80
2024/02/07 05:22:07;;;;;;;4.10;0.53;;;;;;;3.62;100.00;99444.91;5001853;28;20594;-80
2024/02/07 05:24:35;;;;;;;2.37;0.60;;;;;;;3.59;100.00;99453.81;5003243;28;20873;-82
2024/02/07 05:27:06;;;;;;;2.37;1.07;;;;;;;3.57;100.00;99439.91;5003219;28;20656;-80
2024/02/07 05:29:32;;;;;;;2.47;0.90;;;;;;;3.58;100.00;99440.75;4998394;28;20648;-81
2024/02/07 05:31:59;;;;;;;2.37;0.90;;;;;;;3.56;100.00;99438.22;5005945;28;20823;-80
2024/02/07 05:34:25;;;;;;;3.80;0.80;;;;;;;3.52;100.00;99441.06;5000393;28;20211;-82
2024/02/07 05:36:53;;;;;;;1.53;0.57;;;;;;;3.50;100.00;99433.25;5005701;28;20289;-81
2024/02/07 05:39:20;;;;;;;1.97;0.50;;;;;;;3.49;100.00;99421.88;4999430;28;20213;-79
2024/02/07 05:41:46;;;;;;;1.33;0.70;;;;;;;3.43;100.00;99435.34;5001363;28;20295;-81
2024/02/07 05:44:13;;;;;;;1.77;0.97;;;;;;;3.43;100.00;99439.78;5000026;28;20215;-79
2024/02/07 05:46:40;;;;;;;2.40;0.50;;;;;;;3.37;100.00;99440.13;5001831;28;20199;-79
2024/02/07 05:49:07;;;;;;;3.50;0.40;;;;;;;3.36;100.00;99428.75;5001619;28;20242;-80
2024/02/07 05:51:35;;;;;;;1.00;0.47;;;;;;;3.34;100.00;99435.00;4997274;28;20208;-79
2024/02/07 05:54:03;;;;;;;1.43;0.40;;;;;;;3.29;100.00;99440.50;4995084;28;20211;-79
2024/02/07 05:56:30;;;;;;;1.33;0.40;;;;;;;3.26;100.00;99445.06;4998433;28;20226;-79
2024/02/07 05:58:56;;;;;;;0.87;0.40;;;;;;;3.26;100.00;99450.34;4998094;28;20228;-80
2024/02/07 06:01:23;;;;;;;0.70;0.20;;;;;;;3.22;100.00;99454.09;4995948;28;20219;-79
2024/02/07 06:03:50;;;;;;;2.07;0.43;;;;;;;3.23;100.00;99463.66;4994529;28;20217;-79
2024/02/07 06:06:17;;;;;;;3.27;0.60;;;;;;;3.15;100.00;99458.81;4994807;28;20258;-81
2024/02/07 06:08:45;;;;;;;0.97;0.40;;;;;;;3.12;100.00;99469.47;5000441;28;20220;-79
2024/02/07 06:11:13;;;;;;;0.93;0.40;;;;;;;3.06;100.00;99473.28;4999219;28;21081;-79
2024/02/07 06:13:40;;;;;;;1.50;0.77;;;;;;;3.06;100.00;99472.41;4995179;28;20207;-79
2024/02/07 06:16:07;;;;;;;0.27;0.20;;;;;;;3.04;100.00;99455.91;4994227;28;20712;-79
2024/02/07 06:18:35;;;;;;;0.87;0.20;;;;;;;3.04;100.00;99466.41;5000112;28;20579;-79
2024/02/07 06:21:02;;;;;;;0.30;0.10;;;;;;;2.97;100.00;99480.78;4999397;28;20637;-79
2024/02/07 06:23:28;;;;;;;1.90;0.27;;;;;;;2.94;100.00;99473.06;4993740;28;20208;-79
2024/02/07 06:25:55;;;;;;;1.70;0.30;;;;;;;2.97;100.00;99478.16;5000223;28;20203;-79
2024/02/07 06:28:23;;;;;;;0.70;0.23;;;;;;;2.94;100.00;99475.69;4996789;28;20220;-79
2024/02/07 06:30:49;;;;;;;3.03;0.27;;;;;;;2.94;100.00;99476.53;5002547;28;20214;-79
2024/02/07 06:33:16;;;;;;;2.57;0.17;;;;;;;2.93;100.00;99472.19;4997563;28;20204;-78
2024/02/07 06:35:43;;;;;;;0.57;0.10;;;;;;;2.91;100.00;99465.31;5001114;28;20714;-79
2024/02/07 06:38:09;;;;;;;1.33;0.20;;;;;;;2.88;100.00;99478.63;4996724;28;20228;-79
2024/02/07 06:40:36;;;;;;;0.57;0.10;;;;;;;2.86;100.00;99488.38;4998568;28;20211;-78
2024/02/07 06:43:03;;;;;;;1.17;0.30;;;;;;;2.84;100.00;99488.47;4998905;28;20200;-79
2024/02/07 06:45:31;;;;;;;7.03;4.20;;;;;;;2.82;100.00;99484.22;4997270;28;20195;-81
2024/02/07 06:48:00;;;;;;;4.53;2.97;;;;;;;2.82;100.00;99487.69;4998757;28;20996;-80
2024/02/07 06:50:27;;;;;;;2.17;1.40;;;;;;;2.81;100.00;99482.50;4993104;28;20618;-80
2024/02/07 06:52:53;;;;;;;2.87;1.87;;;;;;;2.82;100.00;99497.34;4992759;28;20211;-80
2024/02/07 06:55:20;;;;;;;1.07;0.97;;;;;;;2.78;100.00;99496.66;4992964;28;20231;-80
2024/02/07 06:57:46;;;;;;;0.73;0.50;;;;;;;2.79;100.00;99499.19;4995056;28;20232;-79
2024/02/07 07:00:14;;;;;;;0.20;0.20;;;;;;;2.81;100.00;99504.38;4996236;28;20610;-79
2024/02/07 07:02:42;;;;;;;0.60;0.50;;;;;;;2.84;100.00;99508.66;4994424;28;20207;-79
2024/02/07 07:05:09;;;;;;;1.53;0.37;;;;;;;2.81;100.00;99509.66;4999988;28;20212;-79
2024/02/07 07:07:36;;;;;;;0.40;0.40;;;;;;;2.81;100.00;99503.53;4991678;28;20224;-80
2024/02/07 07:10:02;;;;;;;2.40;0.60;;;;;;;2.78;100.00;99509.78;4997817;28;20226;-80
2024/02/07 07:12:29;;;;;;;0.80;0.60;;;;;;;2.81;100.00;99528.06;4995620;28;20211;-80
2024/02/07 07:14:55;;;;;;;3.83;0.50;;;;;;;2.81;100.00;99533.31;4994591;28;20216;-79
2024/02/07 07:17:22;;;;;;;1.10;0.50;;;;;;;2.84;100.00;99537.56;4994570;28;20234;-79
2024/02/07 07:19:49;;;;;;;6.57;1.47;;;;;;;2.86;100.00;99538.34;4995887;28;20207;-79
2024/02/07 07:22:16;;;;;;;1.70;0.70;;;;;;;2.89;100.00;99549.53;4996268;28;20762;-80
2024/02/07 07:24:44;;;;;;;2.60;0.87;;;;;;;2.93;100.00;99550.25;4992010;28;20211;-80
2024/02/07 07:27:11;;;;;;;2.13;0.83;;;;;;;2.93;100.00;99558.13;4991420;28;20724;-79
2024/02/07 07:29:38;;;;;;;4.73;2.77;;;;;;;2.94;100.00;99558.06;4988107;28;20257;-79
2024/02/07 07:32:05;;;;;;;3.50;1.00;;;;;;;2.95;100.00;99556.28;4990831;28;20222;-79
2024/02/07 07:34:31;;;;;;;3.43;1.07;;;;;;;2.96;100.00;99568.50;4992330;28;20211;-80
2024/02/07 07:36:59;;;;;;;1.17;0.70;;;;;;;2.97;100.00;99562.31;4995161;28;20223;-79
2024/02/07 07:39:25;;;;;;;1.27;0.80;;;;;;;2.96;100.00;99582.50;4990672;28;20212;-79
2024/02/07 07:41:52;;;;;;;3.13;0.80;;;;;;;2.97;100.00;99570.22;4994201;28;20210;-80
2024/02/07 07:44:18;;;;;;;1.60;0.93;;;;;;;2.97;100.00;99578.09;4997087;28;20219;-80
2024/02/07 07:46:45;;;;;;;2.67;1.10;;;;;;;2.97;100.00;99591.25;4995171;28;20231;-79
2024/02/07 07:49:11;;;;;;;3.00;1.20;;;;;;;2.98;100.00;99599.06;4988431;28;20228;-80
2024/02/07 07:51:38;;;;;;;2.93;1.23;;;;;;;2.99;100.00;99598.16;4999072;28;20212;-79
2024/02/07 07:54:06;;;;;;;3.17;1.10;;;;;;;3.00;100.00;99585.84;4990868;28;20215;-80
2024/02/07 07:56:33;;;;;;;4.73;1.67;;;;;;;3.03;100.00;99612.84;4991541;28;20607;-80
2024/02/07 07:58:59;;;;;;;3.87;1.67;;;;;;;3.06;100.00;99610.06;4995365;28;20738;-80
2024/02/07 08:01:27;;;;;;;9.13;1.50;;;;;;;3.07;100.00;99613.53;4991302;28;20213;-80
2024/02/07 08:03:54;;;;;;;1.70;1.27;;;;;;;3.11;100.00;99612.47;4999889;28;20202;-80
2024/02/07 08:06:21;;;;;;;5.33;2.10;;;;;;;3.12;100.00;99622.91;4996185;28;20214;-80
2024/02/07 08:08:48;;;;;;;4.77;1.90;;;;;;;3.11;100.00;99629.09;4998878;28;20270;-80
2024/02/07 08:11:16;;;;;;;6.60;2.70;;;;;;;3.14;100.00;99630.72;4986776;28;20207;-79
2024/02/07 08:13:42;;;;;;;9.30;2.87;;;;;;;3.20;100.00;99614.66;4995453;28;20211;-80
2024/02/07 08:16:08;;;;;;;4.83;1.90;;;;;;;3.23;100.00;99624.16;4993266;28;20227;-80
2024/02/07 08:18:35;;;;;;;3.73;2.00;;;;;;;3.27;100.00;99626.56;4993958;28;20230;-80
2024/02/07 08:21:02;;;;;;;2.60;1.43;;;;;;;3.29;100.00;99610.69;4997027;28;20214;-80
2024/02/07 08:23:29;;;;;;;4.23;1.93;;;;;;;3.32;100.00;99621.94;4998101;28;20238;-80
2024/02/07 08:25:55;;;;;;;3.27;1.60;;;;;;;3.36;100.00;99630.53;4995279;28;20259;-80
2024/02/07 08:28:25;;;;;;;3.43;1.73;;;;;;;3.37;100.00;99626.97;4991970;28;20238;-82
2024/02/07 08:30:51;;;;;;;2.40;1.23;;;;;;;3.39;100.00;99631.22;5006872;28;20207;-80
2024/02/07 08:33:18;;;;;;;4.47;1.63;;;;;;;3.35;100.00;99629.69;5001309;28;20682;-80
2024/02/07 08:35:44;;;;;;;5.70;1.70;;;;;;;3.35;100.00;99634.09;5004715;28;20699;-81
2024/02/07 08:38:11;;;;;;;4.27;1.60;;;;;;;3.34;100.00;99638.50;4997682;28;20618;-81
2024/02/07 08:40:37;;;;;;;3.90;1.90;;;;;;;3.34;100.00;99648.16;4997680;28;20219;-82
2024/02/07 08:43:06;;;;;;;4.63;1.97;;;;;;;3.33;100.00;99655.22;4995464;28;20212;-82
2024/02/07 08:45:35;;;;;;;6.23;1.53;;;;;;;3.38;100.00;99660.25;4994895;28;20223;-82
2024/02/07 08:48:02;;;;;;;2.90;1.60;;;;;;;3.40;100.00;99663.66;4994676;28;20232;-81
2024/02/07 08:50:28;;;;;;;3.40;2.00;;;;;;;3.38;100.00;99657.63;5001045;28;20835;-82
2024/02/07 08:52:55;;;;;;;7.47;1.80;;;;;;;3.42;100.00;99667.91;4997745;28;20675;-82
2024/02/07 08:55:21;;;;;;;5.53;2.77;;;;;;;3.43;100.00;99664.34;4994894;28;20671;-82
2024/02/07 08:57:48;;;;;;;3.33;1.83;;;;;;;3.46;100.00;99666.81;4995875;28;20223;-83
2024/02/07 09:00:15;;;;;;;5.70;2.37;;;;;;;3.45;100.00;99670.38;4985491;28;20195;-82
2024/02/07 09:02:45;;;;;;;9.87;2.50;;;;;;;3.54;100.00;99661.19;4997061;28;20657;-81
2024/02/07 09:05:12;;;;;;;7.67;2.80;;;;;;;3.60;100.00;99662.66;4992906;28;20295;-81
2024/02/07 09:07:38;;;;;;;7.23;2.80;;;;;;;3.62;100.00;99659.00;4993994;28;20920;-81
2024/02/07 09:10:05;;;;;;;8.83;3.30;;;;;;;3.68;100.00;99649.97;5006018;28;20771;-81
2024/02/07 09:12:32;;;;;;;8.93;3.33;;;;;;;3.71;100.00;99655.06;4993286;28;20668;-82
2024/02/07 09:14:59;;;;;;;7.70;2.80;;;;;;;3.75;100.00;99660.09;4993199;28;20215;-81
2024/02/07 09:17:25;;;;;;;6.93;2.50;;;;;;;3.77;100.00;99658.22;4983859;28;20275;-83
2024/02/07 09:19:53;;;;;;;6.87;2.47;;;;;;;3.81;100.00;99659.78;4990193;28;20208;-82
2024/02/07 09:22:20;;;;;;;7.50;2.50;;;;;;;3.85;100.00;99668.38;4995084;28;20234;-81
2024/02/07 09:24:46;;;;;;;6.53;2.00;;;;;;;3.92;100.00;99672.41;4981171;28;20286;-81
2024/02/07 09:27:13;;;;;;;8.67;2.80;;;;;;;3.96;100.00;99663.41;4992666;28;20212;-83
2024/02/07 09:29:39;;;;;;;9.47;2.73;;;;;;;4.00;100.00;99664.94;4991967;28;20208;-81
2024/02/07 09:32:06;;;;;;;7.17;2.10;;;;;;;4.04;100.00;99660.38;4991251;28;20207;-83
2024/02/07 09:34:33;;;;;;;7.43;2.60;;;;;;;4.07;100.00;99654.94;4991942;28;20211;-83
2024/02/07 09:37:01;;;;;;;6.47;2.43;;;;;;;4.10;100.00;99660.91;4997508;28;20230;-82
2024/02/07 09:39:28;;;;;;;9.83;2.37;;;;;;;4.19;100.00;99664.84;4997177;28;20239;-82
2024/02/07 09:41:57;;;;;;;9.47;2.50;;;;;;;4.22;100.00;99656.78;4997223;28;20576;-83
2024/02/07 09:44:27;;;;;;;8.73;2.47;;;;;;;4.26;100.00;99665.38;4998086;28;20204;-82
2024/02/07 09:46:57;;;;;;;5.90;2.40;;;;;;;4.30;100.00;99661.66;4997534;28;20203;-82
2024/02/07 09:49:24;;;;;;;7.07;2.37;;;;;;;4.33;100.00;99667.59;4999849;28;20215;-83
2024/02/07 09:51:52;;;;;;;10.67;3.27;;;;;;;4.38;100.00;99681.38;5002743;28;20208;-82
2024/02/07 09:54:20;;;;;;;10.87;2.77;;;;;;;4.44;100.00;99682.84;4998648;28;20208;-82
2024/02/07 09:56:47;;;;;;;11.33;2.27;;;;;;;4.47;100.00;99659.81;4997892;28;20235;-83
2024/02/07 09:59:14;;;;;;;12.40;2.80;;;;;;;4.51;100.00;99660.47;4996280;28;20728;-82
2024/02/07 10:01:42;;;;;;;11.47;2.67;;;;;;;4.55;100.00;99672.56;4996242;28;20207;-81
2024/02/07 10:04:13;;;;;;;9.67;2.00;;;;;;;4.59;100.00;99665.34;4996283;28;20217;-82
2024/02/07 10:06:41;;;;;;;8.93;1.87;;;;;;;4.61;100.00;99669.59;4996656;28;20258;-81
2024/02/07 10:09:09;;;;;;;8.53;1.90;;;;;;;4.65;100.00;99676.41;4996874;28;20231;-82
2024/02/07 10:11:37;;;;;;;7.80;1.97;;;;;;;4.66;100.00;99678.09;4996048;28;20238;-83
2024/02/07 10:14:04;;;;;;;6.80;1.80;;;;;;;4.70;100.00;99681.41;4996160;28;20207;-82
2024/02/07 10:16:31;;;;;;;8.57;2.13;;;;;;;4.72;100.00;99688.31;4995160;28;20243;-82
2024/02/07 10:18:57;;;;;;;15.20;2.90;;;;;;;4.77;100.00;99699.47;4996121;28;20242;-81
2024/02/07 10:21:33;;;;;;;8.83;2.13;;;;;;;4.82;100.00;99712.41;4996382;28;20206;-83
2024/02/07 10:24:00;;;;;;;10.87;2.80;;;;;;;4.85;100.00;99717.50;4996305;28;20229;-83
2024/02/07 10:26:26;;;;;;;12.53;2.23;;;;;;;4.88;100.00;99717.34;4996024;28;20210;-83
2024/02/07 10:28:59;;;;;;;9.70;3.13;;;;;;;4.89;97.89;99706.69;4995714;28;20226;-82
2024/02/07 10:31:26;;;;;;;11.87;1.87;;;;;;;4.94;96.82;99706.47;4995234;28;20203;-82
2024/02/07 10:33:54;;;;;;;5.87;1.87;;;;;;;4.96;96.15;99709.00;4994703;28;20207;-81
2024/02/07 10:36:23;;;;;;;11.23;1.70;;;;;;;4.97;95.40;99714.22;4995518;28;20255;-82
2024/02/07 10:38:49;;;;;;;10.13;2.00;;;;;;;5.01;95.61;99714.91;4994894;28;20231;-81
2024/02/07 10:41:16;;;;;;;11.03;2.70;;;;;;;5.03;93.88;99718.28;4994919;28;20216;-82
2024/02/07 10:43:42;;;;;;;13.43;2.60;;;;;;;5.02;93.58;99719.22;4994651;28;20203;-82
2024/02/07 10:46:13;;;;;;;6.73;2.00;;;;;;;5.04;92.91;99717.34;4993710;28;20211;-82
2024/02/07 10:48:40;;;;;;;10.10;2.63;;;;;;;5.07;92.16;99709.25;4994481;28;20258;-82
2024/02/07 10:51:07;;;;;;;9.47;2.47;;;;;;;5.08;92.25;99724.16;4994248;28;20199;-82
2024/02/07 10:53:34;;;;;;;10.00;3.50;;;;;;;5.10;92.44;99728.41;4994002;28;20215;-82
2024/02/07 10:56:02;;;;;;;15.37;2.47;;;;;;;5.15;92.31;99731.66;4993646;28;20215;-82
2024/02/07 10:58:29;;;;;;;13.03;3.03;;;;;;;5.16;91.25;99719.31;4994542;28;20235;-81
2024/02/07 11:00:57;;;;;;;12.07;2.33;;;;;;;5.17;90.96;99718.38;4994360;28;20692;-82
2024/02/07 11:03:29;;;;;;;10.53;2.23;;;;;;;5.16;90.74;99706.13;4995008;28;20274;-82
2024/02/07 11:05:56;;;;;;;9.50;2.10;;;;;;;5.17;89.15;99698.13;4994462;28;20202;-83
2024/02/07 11:08:25;;;;;;;9.70;1.77;;;;;;;5.16;88.01;99700.84;4993866;28;20224;-82
2024/02/07 11:10:53;;;;;;;13.23;2.37;;;;;;;5.15;87.82;99712.34;4993690;28;20216;-84
2024/02/07 11:13:20;;;;;;;9.43;2.23;;;;;;;5.20;88.31;99712.91;4993477;28;20204;-83
2024/02/07 11:15:47;;;;;;;9.77;2.47;;;;;;;5.20;87.95;99708.47;4992867;28;20210;-83
2024/02/07 11:18:13;;;;;;;10.17;2.27;;;;;;;5.20;87.51;99707.63;4993588;28;20876;-83
2024/02/07 11:20:44;;;;;;;9.17;2.47;;;;;;;5.26;88.04;99711.72;4993948;28;20228;-83
2024/02/07 11:23:14;;;;;;;14.80;3.47;;;;;;;5.26;87.66;99704.66;4994263;28;20557;-83
2024/02/07 11:25:43;;;;;;;9.47;1.93;;;;;;;5.27;87.71;99709.00;4994237;28;20192;-84
2024/02/07 11:28:11;;;;;;;9.67;2.03;;;;;;;5.32;87.35;99712.25;4993228;28;20227;-83
2024/02/07 11:30:37;;;;;;;9.60;2.27;;;;;;;5.30;87.04;99713.25;4993724;28;20214;-83
2024/02/07 11:33:04;;;;;;;13.03;2.40;;;;;;;5.29;86.54;99711.56;4993439;28;20208;-84
2024/02/07 11:35:33;;;;;;;8.97;1.83;;;;;;;5.35;86.73;99709.44;4993309;28;20207;-83
2024/02/07 11:38:02;;;;;;;8.83;1.87;;;;;;;5.33;85.76;99716.59;4993065;28;20289;-83
2024/02/07 11:40:37;;;;;;;11.03;2.33;;;;;;;5.31;85.52;99715.81;4995400;28;20234;-83
2024/02/07 11:43:04;;;;;;;12.50;2.93;;;;;;;5.31;85.53;99715.81;4997311;28;20668;-82
2024/02/07 11:45:31;;;;;;;13.30;3.33;;;;;;;5.34;85.92;99713.00;4995262;28;20759;-82
2024/02/07 11:47:57;;;;;;;16.47;2.53;;;;;;;5.38;86.19;99719.78;4994879;28;20227;-82
2024/02/07 11:50:24;;;;;;;9.93;1.70;;;;;;;5.38;86.58;99714.50;4996291;28;20578;-83
2024/02/07 11:52:54;;;;;;;8.30;2.00;;;;;;;5.37;86.59;99714.63;4993540;28;20266;-82
2024/02/07 11:55:22;;;;;;;11.73;2.93;;;;;;;5.41;86.13;99716.97;4993756;28;20206;-82
2024/02/07 11:57:53;;;;;;;9.83;2.97;;;;;;;5.41;86.34;99716.13;4992811;28;20231;-82
2024/02/07 12:00:22;;;;;;;8.97;1.80;;;;;;;5.45;86.54;99720.31;4993999;28;20238;-81
2024/02/07 12:02:49;;;;;;;11.37;1.87;;;;;;;5.49;85.94;99719.19;4994725;28;20707;-83
2024/02/07 12:05:17;;;;;;;10.60;2.63;;;;;;;5.44;85.29;99716.81;4993126;28;20799;-80
2024/02/07 12:07:44;;;;;;;11.23;2.10;;;;;;;5.43;85.64;99727.47;4994541;28;20219;-81
2024/02/07 12:10:12;;;;;;;8.57;1.87;;;;;;;5.44;84.97;99724.72;4994417;28;20577;-83
2024/02/07 12:12:40;;;;;;;9.80;2.10;;;;;;;5.44;85.29;99722.09;4993876;28;20211;-83
2024/02/07 12:15:07;;;;;;;9.77;1.83;;;;;;;5.43;84.92;99725.66;4993671;28;20222;-82
2024/02/07 12:17:35;;;;;;;18.80;2.80;;;;;;;5.48;85.35;99717.50;4993009;28;20235;-81
2024/02/07 12:20:02;;;;;;;14.00;1.90;;;;;;;5.52;84.81;99716.38;4993415;28;20222;-81
2024/02/07 12:22:31;;;;;;;6.17;1.60;;;;;;;5.51;83.36;99715.53;4993291;28;20219;-82
2024/02/07 12:25:00;;;;;;;9.20;1.67;;;;;;;5.47;81.60;99721.91;4989523;28;20211;-82
2024/02/07 12:27:27;;;;;;;8.47;2.30;;;;;;;5.48;80.77;99717.50;4993992;28;20227;-81
2024/02/07 12:29:56;;;;;;;9.00;1.63;;;;;;;5.47;81.28;99729.84;4994499;28;20218;-82
2024/02/07 12:32:23;;;;;;;8.93;1.60;;;;;;;5.52;82.85;99724.31;5001157;28;20221;-81
2024/02/07 12:34:50;;;;;;;8.63;2.47;;;;;;;5.54;82.17;99727.72;4994789;28;20386;-81
2024/02/07 12:37:18;;;;;;;10.17;2.03;;;;;;;5.56;82.62;99731.09;4994204;28;20227;-80
2024/02/07 12:39:48;;;;;;;10.90;3.73;;;;;;;5.63;81.79;99736.88;4994402;28;20234;-82